Decoded Metar for PAMD (MIDDLETON ISLAND in AK, USA) (IATA:N/A) | Meteo·Mobile Aviation Weather
aviador You're here:

PAMD Decoded Metar

MIDDLETON ISLAND in AK, USA
Report Time2018-10-17 05:51:00
UTC Time2018-10-17 06:21:03
Flight Rules vfr VFR
Wind180° at 10 kt
W.Decomp.*RWY 13: 8.5 kt HW 5.3 kt RCW
RWY 20: 7.9 kt HW 6.2 kt LCW
W.Rank180° ranks 22
Current wind is above 180° avg. (8.6)
Visibility9999 m
Phenomena:N/A
Clouds:N/A
Expected CloudBase > 400 ft AGL from Temp-Dew spread
CeilingNone
Temp09°C (ISA -6)
Dew Point08°C (94% RH)
AAT5.0°C
QNH1004 hPa
Density Alt-210 ft
Elevation46 ft
Report Wrong Elevation
Raw Report
PAMD 170551Z AUTO 18010KT 7SM CLR 09/08 A2965 RMK AO2 SLP032 60007
T00940083 10106 20089 51010=

Extra information for PAMD:More info

Metar Taf Metar & Taf Last 4 Metars F.Rules Stats Wind Profile Meteogram Temp Stats Airport Information Weather charts Add Link Nearby VenuesMetar ALERT Operation Metar Decoded Social comments

AIRNAV info for PAMD